MOL Modern — V7VS6 — position and weather

sailwx.info

Track history (hours):
 
Tides and Currents Weather Stations Pressure Air Temp Water Temp Dewpoint Dewpoint Depression Visibility Wind Speed Wind Dir Waves Ship Positions

MOL Modern

Last reported at 2014-Jul-15 10:10 UTC. Time now 2014-Jul-26 13:10 UTC.
Position N 41°14' W 129°19'.
Warning: this ship's position is 11 days out of date.

Length 302 m; draft 10.2 m.

Type: Ship (hazmat cat A). MMSI: 538004203.

Date/timePositionNaut miles runAvg speedWind from/ knotsBaromVisibWave heightAir tempDewpointWater temp
2014-Jul-15 10:10N 41°14' W 129°19'6817.6
2014-Jul-15 06:17N 40°37' W 128°03'3017.3
2014-Jul-15 04:32N 40°20' W 127°31'20417.0
2014-Jul-14 16:33N 38°23' W 123°55'1716.9
2014-Jul-14 15:33N 38°13' W 123°37'1716.5
2014-Jul-14 14:33N 38°07' W 123°18'1717.0
2014-Jul-14 13:33N 37°55' W 123°02'1716.8
2014-Jul-14 12:34N 37°47' W 122°44'1312.8
2014-Jul-14 11:33N 37°50' W 122°28'7 6.4
2014-Jul-14 10:31N 37°49' W 122°20'0 0.0
2014-Jul-14 09:31N 37°49' W 122°20'0 0.0
2014-Jul-14 08:31N 37°49' W 122°20'0 0.0
2014-Jul-14 07:31N 37°49' W 122°20'0 0.0
2014-Jul-14 06:31N 37°49' W 122°20'0 0.0
2014-Jul-14 05:31N 37°49' W 122°20'0 0.0
2014-Jul-14 04:31N 37°49' W 122°20'0 0.0
2014-Jul-14 03:31N 37°49' W 122°20'0 0.0
2014-Jul-14 02:31N 37°49' W 122°20'0 0.0
2014-Jul-14 01:31N 37°49' W 122°20'0 0.0
2014-Jul-14 00:31N 37°49' W 122°20'0 0.0
2014-Jul-13 23:31N 37°49' W 122°20'0 0.0
2014-Jul-13 22:31N 37°49' W 122°20'0 0.0
2014-Jul-13 21:31N 37°49' W 122°20'0 0.0
2014-Jul-13 20:31N 37°49' W 122°20'0 0.0
2014-Jul-13 19:31N 37°49' W 122°20'0 0.0
2014-Jul-13 18:31N 37°49' W 122°20'0 0.0
2014-Jul-13 17:31N 37°49' W 122°20'0 0.0
2014-Jul-13 16:31N 37°49' W 122°20'0 0.0
2014-Jul-13 15:31N 37°49' W 122°20'0 0.0
2014-Jul-13 14:31N 37°49' W 122°20'3 2.8
2014-Jul-13 13:33N 37°49' W 122°23'1212.4
2014-Jul-13 12:34N 37°46' W 122°38'8 7.6
2014-Jul-13 11:33N 37°41' W 122°46'1010.1
2014-Jul-13 10:34N 37°35' W 122°56'8 8.3
2014-Jul-13 09:33N 37°29' W 123°03'1111.2
2014-Jul-13 08:33N 37°18' W 123°03'1918.7
2014-Jul-13 07:33N 37°01' W 122°54'2020.2
2014-Jul-13 06:33N 36°43' W 122°43'2120.9
2014-Jul-13 05:33N 36°24' W 122°32'2020.3
2014-Jul-13 04:33N 36°05' W 122°21'2020.0
2014-Jul-13 03:33N 35°48' W 122°08'2020.0
2014-Jul-13 02:33N 35°31' W 121°55'2020.4
2014-Jul-13 01:33N 35°14' W 121°41'2019.9
2014-Jul-13 00:33N 34°58' W 121°28'2120.3
2014-Jul-12 23:32N 34°43' W 121°10'1919.5
2014-Jul-12 22:33N 34°29' W 120°54'3214.8
2014-Jul-12 20:23N 34°18' W 120°17'1315.4
2014-Jul-12 19:33N 34°15' W 120°02'1615.6
2014-Jul-12 18:33N 34°11' W 119°44'1615.8
2014-Jul-12 17:33N 34°07' W 119°25'1615.9
2014-Jul-12 16:33N 34°01' W 119°08'1212.4
2014-Jul-12 15:33N 33°55' W 118°55'1211.7
2014-Jul-12 14:33N 33°49' W 118°43'1211.6
2014-Jul-12 13:34N 33°43' W 118°30'1111.3
2014-Jul-12 12:33N 33°38' W 118°18'7 6.8
2014-Jul-12 11:33N 33°45' W 118°16'1 1.1
2014-Jul-12 10:32N 33°46' W 118°16'0 0.0
2014-Jul-12 09:32N 33°46' W 118°16'0 0.0
2014-Jul-12 08:32N 33°46' W 118°16'0 0.0
2014-Jul-12 07:32N 33°46' W 118°16'0 0.0
2014-Jul-12 06:32N 33°46' W 118°16'0 0.0
2014-Jul-12 05:32N 33°46' W 118°16'0 0.0
2014-Jul-12 04:32N 33°46' W 118°16'0 0.0
2014-Jul-12 03:32N 33°46' W 118°16'0 0.0
2014-Jul-12 02:32N 33°46' W 118°16'0 0.0
2014-Jul-12 01:32N 33°46' W 118°16'0 0.0
2014-Jul-12 00:32N 33°46' W 118°16'0 0.0
2014-Jul-11 23:32N 33°46' W 118°16'0 0.0
2014-Jul-11 22:32N 33°46' W 118°16'0 0.0
2014-Jul-11 21:32N 33°46' W 118°16'0 0.0
2014-Jul-11 20:32N 33°46' W 118°16'0 0.0
2014-Jul-11 19:32N 33°46' W 118°16'0 0.0
2014-Jul-11 18:31N 33°46' W 118°16'0 0.0
2014-Jul-11 17:32N 33°46' W 118°16'0 0.0
2014-Jul-11 16:32N 33°46' W 118°16'0 0.0
2014-Jul-11 15:32N 33°46' W 118°16'0 0.0
2014-Jul-11 14:32N 33°46' W 118°16'0 0.0
2014-Jul-11 13:32N 33°46' W 118°16'0 0.0
2014-Jul-11 12:32N 33°46' W 118°16'0 0.0
2014-Jul-11 11:31N 33°46' W 118°16'0 0.0
2014-Jul-11 10:31N 33°46' W 118°16'0 0.0
2014-Jul-11 09:28N 33°46' W 118°16'0 0.0
2014-Jul-11 08:32N 33°46' W 118°16'0 0.0
2014-Jul-11 07:31N 33°46' W 118°16'0 0.0
2014-Jul-11 06:31N 33°46' W 118°16'0 0.0
2014-Jul-11 05:31N 33°46' W 118°16'0 0.0
2014-Jul-11 04:32N 33°46' W 118°16'0 0.0
2014-Jul-11 03:32N 33°46' W 118°16'0 0.0
2014-Jul-11 02:32N 33°46' W 118°16'0 0.0
2014-Jul-11 01:31N 33°46' W 118°16'0 0.0
2014-Jul-11 00:31N 33°46' W 118°16'0 0.0
2014-Jul-10 23:31N 33°46' W 118°16'0 0.0
2014-Jul-10 22:31N 33°46' W 118°16'0 0.0
2014-Jul-10 21:31N 33°46' W 118°16'0 0.0
2014-Jul-10 20:31N 33°46' W 118°16'0 0.0
2014-Jul-10 19:31N 33°46' W 118°16'0 0.0
2014-Jul-10 18:25N 33°46' W 118°16'0 0.0
2014-Jul-10 17:31N 33°46' W 118°16'0 0.0
2014-Jul-10 16:28N 33°46' W 118°16'0 0.0
2014-Jul-10 15:31N 33°46' W 118°16'0 0.0
2014-Jul-10 14:31N 33°46' W 118°16'0 0.0
2014-Jul-10 13:31N 33°46' W 118°16'0 0.0
2014-Jul-10 12:31N 33°46' W 118°16'0 0.0
2014-Jul-10 11:26N 33°46' W 118°16'0 0.0
2014-Jul-10 10:19N 33°46' W 118°16'0 0.0
2014-Jul-10 09:28N 33°46' W 118°16'0 0.0
2014-Jul-10 08:31N 33°46' W 118°16'0 0.0
2014-Jul-10 07:31N 33°46' W 118°16'0 0.0
2014-Jul-10 06:31N 33°46' W 118°16'0 0.0
2014-Jul-10 05:31N 33°46' W 118°16'0 0.0
2014-Jul-10 04:31N 33°46' W 118°16'0 0.0
2014-Jul-10 03:31N 33°46' W 118°16'0 0.0
2014-Jul-10 02:31N 33°46' W 118°16'0 0.0
2014-Jul-10 01:31N 33°46' W 118°16'0 0.0
2014-Jul-10 00:31N 33°46' W 118°16'0 0.0
2014-Jul-09 23:31N 33°46' W 118°16'0 0.0
2014-Jul-09 22:31N 33°46' W 118°16'0 0.0
2014-Jul-09 21:31N 33°46' W 118°16'0 0.0
2014-Jul-09 20:31N 33°46' W 118°16'0 0.0
2014-Jul-09 19:31N 33°46' W 118°16'0 0.0
2014-Jul-09 18:31N 33°46' W 118°16'0 0.0
2014-Jul-09 17:31N 33°46' W 118°16'0 0.0
2014-Jul-09 16:31N 33°46' W 118°16'0 0.0
2014-Jul-09 15:31N 33°46' W 118°16'0 0.0
2014-Jul-09 14:31N 33°46' W 118°16'0 0.0
2014-Jul-09 13:31N 33°46' W 118°16'0 0.0
2014-Jul-09 12:31N 33°46' W 118°16'0 0.0
2014-Jul-09 11:31N 33°46' W 118°16'0 0.0
2014-Jul-09 10:31N 33°46' W 118°16'0 0.0
2014-Jul-09 09:31N 33°46' W 118°16'0 0.0
2014-Jul-09 08:31N 33°46' W 118°16'0 0.0
2014-Jul-09 07:31N 33°46' W 118°16'0 0.0
2014-Jul-09 06:31N 33°46' W 118°16'0 0.0
2014-Jul-09 05:31N 33°46' W 118°16'0 0.0
2014-Jul-09 04:31N 33°46' W 118°16'0 0.0
2014-Jul-09 03:31N 33°46' W 118°16'0 0.0
2014-Jul-09 02:31N 33°46' W 118°16'0 0.0
2014-Jul-09 01:31N 33°46' W 118°16'0 0.0
2014-Jul-09 00:31N 33°46' W 118°16'0 0.2
2014-Jul-08 23:31N 33°46' W 118°17'0 0.2
2014-Jul-08 22:31N 33°46' W 118°16'0 0.0
2014-Jul-08 21:31N 33°46' W 118°16'0 0.0
2014-Jul-08 20:31N 33°46' W 118°16'0 0.0
2014-Jul-08 19:31N 33°46' W 118°16'0 0.0
2014-Jul-08 18:31N 33°46' W 118°16'0 0.0
2014-Jul-08 17:31N 33°46' W 118°16'0 0.0
2014-Jul-08 16:31N 33°46' W 118°16'0 0.0
2014-Jul-08 15:31N 33°46' W 118°16'0 0.0
2014-Jul-08 14:31N 33°46' W 118°16'0 0.0
2014-Jul-08 13:31N 33°46' W 118°16'0 0.0
2014-Jul-08 12:31N 33°46' W 118°16'0 0.0
2014-Jul-08 11:31N 33°46' W 118°16'0 0.0
2014-Jul-08 10:31N 33°46' W 118°16'0 0.0
2014-Jul-08 09:31N 33°46' W 118°16'0 0.0
2014-Jul-08 08:31N 33°46' W 118°16'0 0.0
2014-Jul-08 07:31N 33°46' W 118°16'0 0.0
2014-Jul-08 06:31N 33°46' W 118°16'0 0.0
2014-Jul-08 05:31N 33°46' W 118°16'0 0.0
2014-Jul-08 04:31N 33°46' W 118°16'0 0.0
2014-Jul-08 03:31N 33°46' W 118°16'0 0.0
2014-Jul-08 02:31N 33°46' W 118°16'0 0.0
2014-Jul-08 01:31N 33°46' W 118°16'0 0.0
2014-Jul-08 00:31N 33°46' W 118°16'0 0.0
2014-Jul-07 23:31N 33°46' W 118°16'0 0.2
2014-Jul-07 22:33N 33°45' W 118°17'4 3.6
2014-Jul-07 21:33N 33°42' W 118°15'8 7.8
2014-Jul-07 20:33N 33°36' W 118°20'1211.7
2014-Jul-07 19:33N 33°42' W 118°33'1211.7
2014-Jul-07 18:33N 33°48' W 118°45'1211.7
2014-Jul-07 17:33N 33°53' W 118°57'1211.8
2014-Jul-07 16:33N 33°59' W 119°09'1413.9
2014-Jul-07 15:33N 34°04' W 119°25'1515.3
2014-Jul-07 14:33N 34°08' W 119°43'1414.4
2014-Jul-07 13:33N 34°12' W 119°60'1414.0
2014-Jul-07 12:33N 34°16' W 120°16'1413.9
2014-Jul-07 11:32N 34°19' W 120°33'1312.1
2014-Jul-07 10:28N 34°23' W 120°48'2317.3
2014-Jul-07 09:07N 34°35' W 121°12'1017.8
2014-Jul-07 08:32N 34°41' W 121°23'1717.7
2014-Jul-07 07:33N 34°50' W 121°40'1817.9
2014-Jul-07 06:33N 35°00' W 121°58'1818.1
2014-Jul-07 05:33N 35°10' W 122°17'1817.8
2014-Jul-07 04:33N 35°20' W 122°35'1616.3
2014-Jul-07 03:33N 35°29' W 122°51'1616.3
2014-Jul-07 02:33N 35°38' W 123°09'1716.5
2014-Jul-07 01:33N 35°46' W 123°26'1616.4
2014-Jul-07 00:33N 35°55' W 123°43'1716.6
2014-Jul-06 23:33N 36°04' W 124°01'1716.7
2014-Jul-06 22:34N 36°13' W 124°18'1716.7
2014-Jul-06 21:31N 36°22' W 124°36'1616.6
2014-Jul-06 20:33N 36°30' W 124°53'1716.6
2014-Jul-06 19:33N 36°39' W 125°11'1716.8
2014-Jul-06 18:33N 36°48' W 125°29'1716.8
2014-Jul-06 17:32N 36°56' W 125°47'1716.8
2014-Jul-06 16:32N 37°05' W 126°05'2019.8
2014-Jul-06 15:33N 37°15' W 126°26'2019.7
2014-Jul-06 14:33N 37°26' W 126°47'2218.9
2014-Jul-06 13:23N 37°38' W 127°11'11118.7
2014-Jul-06 07:26N 38°33' W 129°14'  
Track history (hours):
 
Tides and Currents Weather Stations Pressure Air Temp Water Temp Dewpoint Dewpoint Depression Visibility Wind Speed Wind Dir Waves Ship Positions

MOL Modern

Last reported at 2014-Jul-15 10:10 UTC. Time now 2014-Jul-26 13:10 UTC.
Position N 41°14' W 129°19'.
Warning: this ship's position is 11 days out of date.

Length 302 m; draft 10.2 m.

Type: Ship (hazmat cat A). MMSI: 538004203.

Date/timePositionNaut miles runAvg speedWind from/ knotsBaromVisibWave heightAir tempDewpointWater temp
2014-Jul-15 10:10N 41°14' W 129°19'6817.6
2014-Jul-15 06:17N 40°37' W 128°03'3017.3
2014-Jul-15 04:32N 40°20' W 127°31'20417.0
2014-Jul-14 16:33N 38°23' W 123°55'1716.9
2014-Jul-14 15:33N 38°13' W 123°37'1716.5
2014-Jul-14 14:33N 38°07' W 123°18'1717.0
2014-Jul-14 13:33N 37°55' W 123°02'1716.8
2014-Jul-14 12:34N 37°47' W 122°44'1312.8
2014-Jul-14 11:33N 37°50' W 122°28'7 6.4
2014-Jul-14 10:31N 37°49' W 122°20'0 0.0
2014-Jul-14 09:31N 37°49' W 122°20'0 0.0
2014-Jul-14 08:31N 37°49' W 122°20'0 0.0
2014-Jul-14 07:31N 37°49' W 122°20'0 0.0
2014-Jul-14 06:31N 37°49' W 122°20'0 0.0
2014-Jul-14 05:31N 37°49' W 122°20'0 0.0
2014-Jul-14 04:31N 37°49' W 122°20'0 0.0
2014-Jul-14 03:31N 37°49' W 122°20'0 0.0
2014-Jul-14 02:31N 37°49' W 122°20'0 0.0
2014-Jul-14 01:31N 37°49' W 122°20'0 0.0
2014-Jul-14 00:31N 37°49' W 122°20'0 0.0
2014-Jul-13 23:31N 37°49' W 122°20'0 0.0
2014-Jul-13 22:31N 37°49' W 122°20'0 0.0
2014-Jul-13 21:31N 37°49' W 122°20'0 0.0
2014-Jul-13 20:31N 37°49' W 122°20'0 0.0
2014-Jul-13 19:31N 37°49' W 122°20'0 0.0
2014-Jul-13 18:31N 37°49' W 122°20'0 0.0
2014-Jul-13 17:31N 37°49' W 122°20'0 0.0
2014-Jul-13 16:31N 37°49' W 122°20'0 0.0
2014-Jul-13 15:31N 37°49' W 122°20'0 0.0
2014-Jul-13 14:31N 37°49' W 122°20'3 2.8
2014-Jul-13 13:33N 37°49' W 122°23'1212.4
2014-Jul-13 12:34N 37°46' W 122°38'8 7.6
2014-Jul-13 11:33N 37°41' W 122°46'1010.1
2014-Jul-13 10:34N 37°35' W 122°56'8 8.3
2014-Jul-13 09:33N 37°29' W 123°03'1111.2
2014-Jul-13 08:33N 37°18' W 123°03'1918.7
2014-Jul-13 07:33N 37°01' W 122°54'2020.2
2014-Jul-13 06:33N 36°43' W 122°43'2120.9
2014-Jul-13 05:33N 36°24' W 122°32'2020.3
2014-Jul-13 04:33N 36°05' W 122°21'2020.0
2014-Jul-13 03:33N 35°48' W 122°08'2020.0
2014-Jul-13 02:33N 35°31' W 121°55'2020.4
2014-Jul-13 01:33N 35°14' W 121°41'2019.9
2014-Jul-13 00:33N 34°58' W 121°28'2120.3
2014-Jul-12 23:32N 34°43' W 121°10'1919.5
2014-Jul-12 22:33N 34°29' W 120°54'3214.8
2014-Jul-12 20:23N 34°18' W 120°17'1315.4
2014-Jul-12 19:33N 34°15' W 120°02'1615.6
2014-Jul-12 18:33N 34°11' W 119°44'1615.8
2014-Jul-12 17:33N 34°07' W 119°25'1615.9
2014-Jul-12 16:33N 34°01' W 119°08'1212.4
2014-Jul-12 15:33N 33°55' W 118°55'1211.7
2014-Jul-12 14:33N 33°49' W 118°43'1211.6
2014-Jul-12 13:34N 33°43' W 118°30'1111.3
2014-Jul-12 12:33N 33°38' W 118°18'7 6.8
2014-Jul-12 11:33N 33°45' W 118°16'1 1.1
2014-Jul-12 10:32N 33°46' W 118°16'0 0.0
2014-Jul-12 09:32N 33°46' W 118°16'0 0.0
2014-Jul-12 08:32N 33°46' W 118°16'0 0.0
2014-Jul-12 07:32N 33°46' W 118°16'0 0.0
2014-Jul-12 06:32N 33°46' W 118°16'0 0.0
2014-Jul-12 05:32N 33°46' W 118°16'0 0.0
2014-Jul-12 04:32N 33°46' W 118°16'0 0.0
2014-Jul-12 03:32N 33°46' W 118°16'0 0.0
2014-Jul-12 02:32N 33°46' W 118°16'0 0.0
2014-Jul-12 01:32N 33°46' W 118°16'0 0.0
2014-Jul-12 00:32N 33°46' W 118°16'0 0.0
2014-Jul-11 23:32N 33°46' W 118°16'0 0.0
2014-Jul-11 22:32N 33°46' W 118°16'0 0.0
2014-Jul-11 21:32N 33°46' W 118°16'0 0.0
2014-Jul-11 20:32N 33°46' W 118°16'0 0.0
2014-Jul-11 19:32N 33°46' W 118°16'0 0.0
2014-Jul-11 18:31N 33°46' W 118°16'0 0.0
2014-Jul-11 17:32N 33°46' W 118°16'0 0.0
2014-Jul-11 16:32N 33°46' W 118°16'0 0.0
2014-Jul-11 15:32N 33°46' W 118°16'0 0.0
2014-Jul-11 14:32N 33°46' W 118°16'0 0.0
2014-Jul-11 13:32N 33°46' W 118°16'0 0.0
2014-Jul-11 12:32N 33°46' W 118°16'0 0.0
2014-Jul-11 11:31N 33°46' W 118°16'0 0.0
2014-Jul-11 10:31N 33°46' W 118°16'0 0.0
2014-Jul-11 09:28N 33°46' W 118°16'0 0.0
2014-Jul-11 08:32N 33°46' W 118°16'0 0.0
2014-Jul-11 07:31N 33°46' W 118°16'0 0.0
2014-Jul-11 06:31N 33°46' W 118°16'0 0.0
2014-Jul-11 05:31N 33°46' W 118°16'0 0.0
2014-Jul-11 04:32N 33°46' W 118°16'0 0.0
2014-Jul-11 03:32N 33°46' W 118°16'0 0.0
2014-Jul-11 02:32N 33°46' W 118°16'0 0.0
2014-Jul-11 01:31N 33°46' W 118°16'0 0.0
2014-Jul-11 00:31N 33°46' W 118°16'0 0.0
2014-Jul-10 23:31N 33°46' W 118°16'0 0.0
2014-Jul-10 22:31N 33°46' W 118°16'0 0.0
2014-Jul-10 21:31N 33°46' W 118°16'0 0.0
2014-Jul-10 20:31N 33°46' W 118°16'0 0.0
2014-Jul-10 19:31N 33°46' W 118°16'0 0.0
2014-Jul-10 18:25N 33°46' W 118°16'0 0.0
2014-Jul-10 17:31N 33°46' W 118°16'0 0.0
2014-Jul-10 16:28N 33°46' W 118°16'0 0.0
2014-Jul-10 15:31N 33°46' W 118°16'0 0.0
2014-Jul-10 14:31N 33°46' W 118°16'0 0.0
2014-Jul-10 13:31N 33°46' W 118°16'0 0.0
2014-Jul-10 12:31N 33°46' W 118°16'0 0.0
2014-Jul-10 11:26N 33°46' W 118°16'0 0.0
2014-Jul-10 10:19N 33°46' W 118°16'0 0.0
2014-Jul-10 09:28N 33°46' W 118°16'0 0.0
2014-Jul-10 08:31N 33°46' W 118°16'0 0.0
2014-Jul-10 07:31N 33°46' W 118°16'0 0.0
2014-Jul-10 06:31N 33°46' W 118°16'0 0.0
2014-Jul-10 05:31N 33°46' W 118°16'0 0.0
2014-Jul-10 04:31N 33°46' W 118°16'0 0.0
2014-Jul-10 03:31N 33°46' W 118°16'0 0.0
2014-Jul-10 02:31N 33°46' W 118°16'0 0.0
2014-Jul-10 01:31N 33°46' W 118°16'0 0.0
2014-Jul-10 00:31N 33°46' W 118°16'0 0.0
2014-Jul-09 23:31N 33°46' W 118°16'0 0.0
2014-Jul-09 22:31N 33°46' W 118°16'0 0.0
2014-Jul-09 21:31N 33°46' W 118°16'0 0.0
2014-Jul-09 20:31N 33°46' W 118°16'0 0.0
2014-Jul-09 19:31N 33°46' W 118°16'0 0.0
2014-Jul-09 18:31N 33°46' W 118°16'0 0.0
2014-Jul-09 17:31N 33°46' W 118°16'0 0.0
2014-Jul-09 16:31N 33°46' W 118°16'0 0.0
2014-Jul-09 15:31N 33°46' W 118°16'0 0.0
2014-Jul-09 14:31N 33°46' W 118°16'0 0.0
2014-Jul-09 13:31N 33°46' W 118°16'0 0.0
2014-Jul-09 12:31N 33°46' W 118°16'0 0.0
2014-Jul-09 11:31N 33°46' W 118°16'0 0.0
2014-Jul-09 10:31N 33°46' W 118°16'0 0.0
2014-Jul-09 09:31N 33°46' W 118°16'0 0.0
2014-Jul-09 08:31N 33°46' W 118°16'0 0.0
2014-Jul-09 07:31N 33°46' W 118°16'0 0.0
2014-Jul-09 06:31N 33°46' W 118°16'0 0.0
2014-Jul-09 05:31N 33°46' W 118°16'0 0.0
2014-Jul-09 04:31N 33°46' W 118°16'0 0.0
2014-Jul-09 03:31N 33°46' W 118°16'0 0.0
2014-Jul-09 02:31N 33°46' W 118°16'0 0.0
2014-Jul-09 01:31N 33°46' W 118°16'0 0.0
2014-Jul-09 00:31N 33°46' W 118°16'0 0.2
2014-Jul-08 23:31N 33°46' W 118°17'0 0.2
2014-Jul-08 22:31N 33°46' W 118°16'0 0.0
2014-Jul-08 21:31N 33°46' W 118°16'0 0.0
2014-Jul-08 20:31N 33°46' W 118°16'0 0.0
2014-Jul-08 19:31N 33°46' W 118°16'0 0.0
2014-Jul-08 18:31N 33°46' W 118°16'0 0.0
2014-Jul-08 17:31N 33°46' W 118°16'0 0.0
2014-Jul-08 16:31N 33°46' W 118°16'0 0.0
2014-Jul-08 15:31N 33°46' W 118°16'0 0.0
2014-Jul-08 14:31N 33°46' W 118°16'0 0.0
2014-Jul-08 13:31N 33°46' W 118°16'0 0.0
2014-Jul-08 12:31N 33°46' W 118°16'0 0.0
2014-Jul-08 11:31N 33°46' W 118°16'0 0.0
2014-Jul-08 10:31N 33°46' W 118°16'0 0.0
2014-Jul-08 09:31N 33°46' W 118°16'0 0.0
2014-Jul-08 08:31N 33°46' W 118°16'0 0.0
2014-Jul-08 07:31N 33°46' W 118°16'0 0.0
2014-Jul-08 06:31N 33°46' W 118°16'0 0.0
2014-Jul-08 05:31N 33°46' W 118°16'0 0.0
2014-Jul-08 04:31N 33°46' W 118°16'0 0.0
2014-Jul-08 03:31N 33°46' W 118°16'0 0.0
2014-Jul-08 02:31N 33°46' W 118°16'0 0.0
2014-Jul-08 01:31N 33°46' W 118°16'0 0.0
2014-Jul-08 00:31N 33°46' W 118°16'0 0.0
2014-Jul-07 23:31N 33°46' W 118°16'0 0.2
2014-Jul-07 22:33N 33°45' W 118°17'4 3.6
2014-Jul-07 21:33N 33°42' W 118°15'8 7.8
2014-Jul-07 20:33N 33°36' W 118°20'1211.7
2014-Jul-07 19:33N 33°42' W 118°33'1211.7
2014-Jul-07 18:33N 33°48' W 118°45'1211.7
2014-Jul-07 17:33N 33°53' W 118°57'1211.8
2014-Jul-07 16:33N 33°59' W 119°09'1413.9
2014-Jul-07 15:33N 34°04' W 119°25'1515.3
2014-Jul-07 14:33N 34°08' W 119°43'1414.4
2014-Jul-07 13:33N 34°12' W 119°60'1414.0
2014-Jul-07 12:33N 34°16' W 120°16'1413.9
2014-Jul-07 11:32N 34°19' W 120°33'1312.1
2014-Jul-07 10:28N 34°23' W 120°48'2317.3
2014-Jul-07 09:07N 34°35' W 121°12'1017.8
2014-Jul-07 08:32N 34°41' W 121°23'1717.7
2014-Jul-07 07:33N 34°50' W 121°40'1817.9
2014-Jul-07 06:33N 35°00' W 121°58'1818.1
2014-Jul-07 05:33N 35°10' W 122°17'1817.8
2014-Jul-07 04:33N 35°20' W 122°35'1616.3
2014-Jul-07 03:33N 35°29' W 122°51'1616.3
2014-Jul-07 02:33N 35°38' W 123°09'1716.5
2014-Jul-07 01:33N 35°46' W 123°26'1616.4
2014-Jul-07 00:33N 35°55' W 123°43'1716.6
2014-Jul-06 23:33N 36°04' W 124°01'1716.7
2014-Jul-06 22:34N 36°13' W 124°18'1716.7
2014-Jul-06 21:31N 36°22' W 124°36'1616.6
2014-Jul-06 20:33N 36°30' W 124°53'1716.6
2014-Jul-06 19:33N 36°39' W 125°11'1716.8
2014-Jul-06 18:33N 36°48' W 125°29'1716.8
2014-Jul-06 17:32N 36°56' W 125°47'1716.8
2014-Jul-06 16:32N 37°05' W 126°05'2019.8
2014-Jul-06 15:33N 37°15' W 126°26'2019.7
2014-Jul-06 14:33N 37°26' W 126°47'2218.9
2014-Jul-06 13:23N 37°38' W 127°11'11118.7
2014-Jul-06 07:26N 38°33' W 129°14'  

Dump ship's entire track history